• Join FlightAware (Why Join?)
  • Login
  • US Flag GB Flag 
19:40 EDT


 

Airport Tracker/Info


-or-


 

Live Flight TrackerFlight Track Log ✈ SWA17 ✈ 03-Aug-2013 ✈ KBWI - KCHS

Flight Track Log - Related Links

Times and Time Zones

All times are in EDT time to prevent confusion due to time zone crossing. See the SWA17 flight status page for this flight to view local times or setup timezone preferences in your user account.

Time Position Orientation Groundspeed Altitude Reporting Facility
EDT Latitude Longitude Course Direction KTS MPH feet Rate Location/Type
08:47 39.1500 -76.7500 180° South 223 257 3,300  Level Potomac TRACON
08:48 39.1000 -76.7000 142° Southeast 291 335 5,200 1,980 Climbing Potomac TRACON
08:49 39.0500 -76.6333 134° Southeast 286 329 7,100 2,100 Climbing Potomac TRACON
08:50 38.9833 -76.5833 150° Southeast 292 336 9,400 2,520 Climbing Potomac TRACON
08:51 38.9000 -76.5333 155° Southeast 330 380 12,200 1,440 Climbing Potomac TRACON
08:52 38.6134 -76.9957 180° South  Level Estimated
08:53 38.7258 -76.5817 192° South 307 353 14,100  Level Washington Center
08:54 38.6544 -76.6417 213° Southwest 307 353 17,000 2,460 Climbing Washington Center
08:55 38.5808 -76.7097 216° Southwest 321 369 19,100 2,340 Climbing Washington Center
08:56 38.4786 -76.7189 184° South 345 397 21,700 2,400 Climbing Washington Center
08:58 38.2578 -76.6839 173° South 395 455 26,300 1,980 Climbing Washington Center
08:59 38.1372 -76.6689 174° South 420 483 27,800 1,560 Climbing Washington Center
09:00 38.0142 -76.6514 174° South 441 507 29,400 1,500 Climbing Washington Center
09:01 37.8911 -76.6547 181° South 446 513 30,900 1,260 Climbing Washington Center
09:02 37.7658 -76.6689 185° South 446 513 32,000 540 Climbing Washington Center
09:03 37.6406 -76.6856 186° South 451 519 32,000  Level Washington Center
09:04 37.5131 -76.7019 186° South 451 519 32,000  Level Washington Center
09:05 37.3897 -76.7314 191° South 456 525 32,000  Level Washington Center
09:06 37.2600 -76.7844 198° South 451 519 32,000  Level Washington Center
09:07 37.1428 -76.8347 199° South 451 519 32,000  Level Washington Center
09:08 37.0253 -76.8847 199° South 451 519 32,000  Level Washington Center
09:09 36.9058 -76.9322 198° South 451 519 32,000  Level Washington Center
09:10 36.7886 -76.9847 200° South 451 519 32,000  Level Washington Center
09:11 36.6772 -77.0422 202° Southwest 451 519 32,000  Level Washington Center
09:12 36.5781 -77.1308 216° Southwest 441 507 32,000 240 Level Washington Center
09:13 36.4789 -77.2219 216° Southwest 447 514 32,500 960 Climbing Washington Center
09:14 36.3794 -77.3075 215° Southwest 442 509 34,000 720 Climbing Washington Center
09:15 36.2844 -77.3958 217° Southwest 437 503 34,000  Level Washington Center
09:16 36.2042 -77.4633 214° Southwest 437 503 34,000  Level Washington Center
09:17 36.0983 -77.5561 215° Southwest 437 503 34,000  Level Washington Center
09:18 36.0008 -77.6433 216° Southwest 437 503 34,000  Level Washington Center
09:19 35.9014 -77.7281 215° Southwest 437 503 34,000  Level Washington Center
09:20 35.8017 -77.8125 214° Southwest 432 497 34,000  Level Washington Center
09:21 35.7019 -77.8992 215° Southwest 432 497 34,000  Level Washington Center
09:22 35.6000 -77.9856 215° Southwest 432 497 34,000  Level Washington Center
09:23 35.5003 -78.0694 214° Southwest 437 503 34,000  Level Washington Center
09:24 35.3961 -78.1578 215° Southwest 443 510 34,000  Level Washington Center
09:25 35.2900 -78.2411 213° Southwest 449 517 34,000  Level Washington Center
09:26 35.1839 -78.3214 212° Southwest 449 517 34,000  Level Washington Center
09:27 35.0778 -78.4042 213° Southwest 449 517 34,000  Level Washington Center
09:28 34.9694 -78.4864 212° Southwest 454 522 34,000 -1,020 Level Washington Center
09:30 34.7314 -78.6664 212° Southwest 443 510 30,900 -1,740 Descending Jacksonville Center
09:31 34.6319 -78.7444 213° Southwest 438 504 28,600 -1,500 Descending Jacksonville Center
09:32 34.5342 -78.8172 212° Southwest 438 504 28,000 -300 Descending Jacksonville Center
09:33 34.4386 -78.8972 215° Southwest 432 497 28,000 -120 Level Jacksonville Center
09:34 34.3408 -78.9722 212° Southwest 425 489 27,800 -600 Descending Jacksonville Center
09:35 34.2367 -79.0397 208° Southwest 425 489 26,800 -1,020 Descending Jacksonville Center
09:36 34.1294 -79.0869 200° South 419 482 25,800 -1,020 Descending Jacksonville Center
09:37 34.0244 -79.1342 200° South 414 476 24,800 -1,080 Descending Jacksonville Center
09:38 33.9194 -79.1811 200° South 408 470 23,700 -1,620 Descending Jacksonville Center
09:39 33.8164 -79.2256 200° South 402 463 21,600 -2,100 Descending Jacksonville Center
09:40 33.7242 -79.2844 208° Southwest 395 455 19,600 -1,860 Descending Jacksonville Center
09:41 33.6528 -79.3397 213° Southwest 353 406 17,900 -1,800 Descending Jacksonville Center
09:42 33.5711 -79.4003 212° Southwest 353 406 16,000 -1,980 Descending Jacksonville Center
09:43 33.4933 -79.4606 213° Southwest 353 406 14,000 -1,980 Descending Jacksonville Center
09:44 33.4156 -79.5158 211° Southwest 343 395 12,100 -1,560 Descending Jacksonville Center
09:45 33.3419 -79.5733 213° Southwest 332 382 10,900 -1,200 Descending Jacksonville Center
09:46 33.2811 -79.6378 222° Southwest 312 359 9,700 -1,620 Descending Jacksonville Center
09:47 33.2350 -79.7139 234° Southwest 293 337 7,700 -1,980 Descending Jacksonville Center
09:48 33.1847 -79.7853 230° Southwest 288 331 5,800 -1,500 Descending Jacksonville Center
09:49 33.1403 -79.8536 232° Southwest 280 322 4,800 -780 Descending Jacksonville Center
09:50 33.1019 -79.9094 231° Southwest 252 290 4,300 -660 Descending Jacksonville Center
09:51 33.0656 -79.9506 223° Southwest 212 244 3,500 -900 Descending Jacksonville Center
09:52 33.0200 -79.9742 203° Southwest 189 217 2,600 -900 Descending Jacksonville Center
09:54 32.8986 -80.0405 203° Southwest  Level Estimated
10:01 32.8986 -80.0405 203° Southwest  Level Estimated
10:02 32.8986 -80.0405 203° Southwest  Level Estimated
10:03 32.8986 -80.0405 203° Southwest  Level Estimated